Current | Forecast
Updated: 5:00 PM JST on April 21, 2018
Observed at Chofu, Japan
Temperature 75°F
Humidity 41%
Dew Point 50°F
Wind South at 10 mph
Pressure 30.04 in (Steady)
Conditions Clear
Visibility -
UV N/A
Clouds
Yesterday's Maximum 79°F
Yesterday's Minimum 66°F approx.
Yesterday's Cooling Degree Days 8 approx.
Sunrise5:02 AM JST
Sunset6:19 PM JST
Moon Rise9:09 AM JST
Moon Set11:45 PM JST
Moon PhaseMoon Phase
Waxing Crescent
Raw METARMETAR RJTF 210800Z 17009KT CAVOK 24/10 Q1017


Monday
. High: 80° F.
Tuesday
. High: 78° F.
Wednesday
. High: 69° F.
Thursday
. High: 75° F.
Friday
. High: 78° F.
Saturday
. High: 77° F.
Sunday
. High: 73° F.
Monday
. High: 73° F.

Units: English | Metric

Find the Weather for any City, State or Zipcode, or Country:

U.S. State List | Severe Weather | Tropical Storms | Ski Conditions
United States | Canada | Central America | South America | Asia | Europe | Australia | Africa | Islands

Weather Underground

© Copyright 2018
The Weather Company, LLC